createdAt,value
2018-08-12T00:00:02.227Z,13.13
2018-08-12T00:02:30.759Z,13.07
2018-08-12T00:05:00.072Z,12.98
2018-08-12T00:07:30.271Z,12.93
2018-08-12T00:09:59.038Z,12.99
2018-08-12T00:12:27.505Z,13.05
2018-08-12T00:14:55.999Z,12.96
2018-08-12T00:17:24.511Z,12.87
2018-08-12T00:19:52.960Z,12.77
2018-08-12T00:22:21.686Z,12.66
2018-08-12T00:24:50.284Z,12.72
2018-08-12T00:27:18.693Z,12.74
2018-08-12T00:29:47.152Z,12.79
2018-08-12T00:32:15.662Z,12.74
2018-08-12T00:34:44.156Z,12.58
2018-08-12T00:37:12.923Z,12.32
2018-08-12T00:39:41.401Z,12.13
2018-08-12T00:42:09.855Z,12.23
2018-08-12T00:44:38.583Z,12.23
2018-08-12T00:47:07.055Z,12.32
2018-08-12T00:49:35.467Z,12.31
2018-08-12T00:52:04.155Z,12.18
2018-08-12T00:54:32.627Z,11.99
2018-08-12T00:57:01.127Z,11.93
2018-08-12T00:59:29.562Z,12.12
2018-08-12T01:01:58.128Z,12.14
2018-08-12T01:04:26.695Z,12.03
2018-08-12T01:06:55.339Z,12.07
2018-08-12T01:09:23.851Z,12.12
2018-08-12T01:11:52.262Z,12.02
2018-08-12T01:14:20.778Z,12.10
2018-08-12T01:16:49.219Z,11.91
2018-08-12T01:19:17.746Z,12.06
2018-08-12T01:21:46.259Z,12.15
2018-08-12T01:24:14.748Z,11.90
2018-08-12T01:26:43.215Z,11.51
2018-08-12T01:29:11.743Z,11.68
2018-08-12T01:31:40.271Z,11.77
2018-08-12T01:34:08.755Z,11.71
2018-08-12T01:36:37.524Z,11.77
2018-08-12T01:39:08.159Z,11.73
2018-08-12T01:41:36.700Z,11.82
2018-08-12T01:44:05.439Z,11.83
2018-08-12T01:46:33.994Z,11.83
2018-08-12T01:49:02.494Z,11.80
2018-08-12T01:51:31.022Z,11.88
2018-08-12T01:53:59.540Z,11.49
2018-08-12T01:56:28.387Z,11.56
2018-08-12T01:58:56.828Z,11.57
2018-08-12T02:01:25.331Z,11.62
2018-08-12T02:03:53.930Z,11.61
2018-08-12T02:06:22.366Z,11.61
2018-08-12T02:08:50.814Z,11.64
2018-08-12T02:11:19.351Z,11.39
2018-08-12T02:13:47.887Z,11.37
2018-08-12T02:16:16.387Z,11.37
2018-08-12T02:18:44.993Z,11.28
2018-08-12T02:21:13.442Z,11.60
2018-08-12T02:23:41.851Z,11.71
2018-08-12T02:26:10.358Z,11.57
2018-08-12T02:28:38.864Z,11.55
2018-08-12T02:31:07.348Z,11.39
2018-08-12T02:33:36.103Z,11.47
2018-08-12T02:36:04.539Z,11.53
2018-08-12T02:38:32.931Z,11.69
2018-08-12T02:41:01.488Z,11.72
2018-08-12T02:43:29.883Z,11.59
2018-08-12T02:45:58.302Z,11.43
2018-08-12T02:48:26.740Z,11.17
2018-08-12T02:50:55.171Z,11.24
2018-08-12T02:53:23.655Z,11.46
2018-08-12T02:55:53.013Z,11.40
2018-08-12T02:58:21.708Z,11.15
2018-08-12T03:00:50.120Z,11.23
2018-08-12T03:03:18.952Z,11.20
2018-08-12T03:08:21.424Z,11.22
2018-08-12T03:10:49.928Z,11.14
2018-08-12T03:13:18.397Z,11.04
2018-08-12T03:15:46.839Z,11.07
2018-08-12T03:18:15.297Z,11.08
2018-08-12T03:20:43.743Z,11.19
2018-08-12T03:23:12.351Z,11.21
2018-08-12T03:25:40.838Z,11.07
2018-08-12T03:28:09.373Z,10.95
2018-08-12T03:30:37.965Z,10.97
2018-08-12T03:33:06.774Z,10.96
2018-08-12T03:35:35.346Z,10.87
2018-08-12T03:38:04.011Z,10.88
2018-08-12T03:40:32.507Z,10.98
2018-08-12T03:43:00.983Z,10.68
2018-08-12T03:45:29.476Z,10.68
2018-08-12T03:47:57.863Z,10.73
2018-08-12T03:50:26.389Z,10.89
2018-08-12T03:52:54.955Z,10.56
2018-08-12T03:55:23.375Z,10.56
2018-08-12T03:57:51.812Z,10.68
2018-08-12T04:00:20.306Z,10.55
2018-08-12T04:02:49.414Z,10.63
2018-08-12T04:05:18.805Z,10.58
2018-08-12T04:07:47.461Z,10.83
2018-08-12T04:10:15.939Z,10.71
2018-08-12T04:12:44.602Z,10.54
2018-08-12T04:15:13.379Z,10.36
2018-08-12T04:17:42.247Z,10.34
2018-08-12T04:20:11.746Z,10.46
2018-08-12T04:22:40.315Z,10.55
2018-08-12T04:25:08.838Z,10.63
2018-08-12T04:27:37.317Z,10.56
2018-08-12T04:30:07.835Z,10.49
2018-08-12T04:32:36.312Z,10.47
2018-08-12T04:35:05.651Z,10.50
2018-08-12T04:37:34.106Z,10.58
2018-08-12T04:40:02.536Z,10.62
2018-08-12T04:42:31.008Z,10.83
2018-08-12T04:44:59.791Z,10.73
2018-08-12T04:47:28.219Z,10.86
2018-08-12T04:49:56.799Z,11.05
2018-08-12T04:52:25.230Z,10.89
2018-08-12T04:54:53.631Z,10.95
2018-08-12T04:57:22.096Z,10.85
2018-08-12T04:59:50.700Z,10.84
2018-08-12T05:02:19.163Z,10.96
2018-08-12T05:04:47.598Z,11.59
2018-08-12T05:07:16.127Z,12.22
2018-08-12T05:09:44.535Z,12.92
2018-08-12T05:12:12.923Z,13.61
2018-08-12T05:14:41.781Z,13.60
2018-08-12T05:17:10.261Z,13.80
2018-08-12T05:19:38.743Z,13.41
2018-08-12T05:22:07.711Z,13.20
2018-08-12T05:24:36.135Z,13.11
2018-08-12T05:27:04.607Z,12.63
2018-08-12T05:29:33.063Z,12.60
2018-08-12T05:32:01.551Z,13.31
2018-08-12T05:34:30.024Z,14.15
2018-08-12T05:36:58.679Z,14.47
2018-08-12T05:39:27.067Z,15.05
2018-08-12T05:41:55.623Z,15.35
2018-08-12T05:44:24.087Z,15.58
2018-08-12T05:46:52.613Z,15.58
2018-08-12T05:49:21.119Z,15.66
2018-08-12T05:51:49.595Z,15.91
2018-08-12T05:54:18.007Z,16.26
2018-08-12T05:56:46.491Z,16.39
2018-08-12T05:59:15.328Z,16.27
2018-08-12T06:01:43.784Z,16.53
2018-08-12T06:04:12.175Z,16.49
2018-08-12T06:06:40.708Z,16.71
2018-08-12T06:09:10.464Z,16.43
2018-08-12T06:11:38.994Z,16.71
2018-08-12T06:14:08.444Z,16.77
2018-08-12T06:16:36.992Z,16.66
2018-08-12T06:19:05.477Z,16.61
2018-08-12T06:21:34.123Z,16.72
2018-08-12T06:24:02.783Z,16.76
2018-08-12T06:26:31.311Z,17.50
2018-08-12T06:29:00.016Z,16.76
2018-08-12T06:31:28.456Z,16.45
2018-08-12T06:33:56.923Z,16.80
2018-08-12T06:36:25.619Z,16.87
2018-08-12T06:38:54.039Z,16.97
2018-08-12T06:41:22.493Z,16.58
2018-08-12T06:43:51.023Z,16.71
2018-08-12T06:46:19.526Z,17.10
2018-08-12T06:48:48.035Z,16.69
2018-08-12T06:51:16.722Z,16.66
2018-08-12T06:53:45.166Z,16.64
2018-08-12T06:56:13.686Z,17.41
2018-08-12T06:58:42.245Z,16.99
2018-08-12T07:01:10.704Z,17.04
2018-08-12T07:03:46.372Z,17.01
2018-08-12T07:06:14.787Z,17.22
2018-08-12T07:08:43.289Z,16.97
2018-08-12T07:11:11.715Z,17.30
2018-08-12T07:13:40.193Z,17.10
2018-08-12T07:16:08.616Z,16.79
2018-08-12T07:18:37.112Z,16.93
2018-08-12T07:21:05.578Z,16.96
2018-08-12T07:23:34.096Z,16.86
2018-08-12T07:26:02.886Z,17.32
2018-08-12T07:28:31.352Z,17.70
2018-08-12T07:30:59.756Z,17.74
2018-08-12T07:33:28.331Z,18.04
2018-08-12T07:35:56.726Z,17.86
2018-08-12T07:38:25.351Z,17.89
2018-08-12T07:40:53.911Z,17.91
2018-08-12T07:43:22.320Z,18.00
2018-08-12T07:45:50.867Z,18.45
2018-08-12T07:48:19.715Z,18.63
2018-08-12T07:50:48.134Z,19.28
2018-08-12T07:53:16.655Z,19.09
2018-08-12T07:55:45.195Z,19.17
2018-08-12T07:58:13.651Z,19.03
2018-08-12T08:00:42.080Z,19.43
2018-08-12T08:03:10.823Z,19.92
2018-08-12T08:05:39.287Z,19.99
2018-08-12T08:08:07.763Z,19.85
2018-08-12T08:10:36.355Z,20.11
2018-08-12T08:13:04.924Z,20.09
2018-08-12T08:15:33.353Z,20.82
2018-08-12T08:18:02.300Z,20.64
2018-08-12T08:20:30.771Z,20.61
2018-08-12T08:22:59.270Z,20.59
2018-08-12T08:25:27.873Z,21.39
2018-08-12T08:27:56.385Z,21.47
2018-08-12T08:30:24.947Z,21.18
2018-08-12T08:32:53.408Z,21.21
2018-08-12T08:35:21.822Z,21.97
2018-08-12T08:37:50.278Z,21.82
2018-08-12T08:40:18.738Z,22.15
2018-08-12T08:42:47.658Z,21.35
2018-08-12T08:45:19.522Z,21.42
2018-08-12T08:47:49.155Z,21.88
2018-08-12T08:50:18.799Z,21.78
2018-08-12T08:52:47.360Z,21.42
2018-08-12T08:55:16.378Z,21.73
2018-08-12T08:57:45.497Z,22.07
2018-08-12T09:00:16.771Z,22.25
2018-08-12T09:02:48.197Z,22.11
2018-08-12T09:05:17.187Z,22.43
2018-08-12T09:07:45.779Z,22.60
2018-08-12T09:10:15.695Z,22.90
2018-08-12T09:12:44.233Z,23.54
2018-08-12T09:15:14.910Z,22.96
2018-08-12T09:17:44.384Z,23.32
2018-08-12T09:20:14.850Z,23.73
2018-08-12T09:22:43.435Z,23.57
2018-08-12T09:25:12.864Z,23.49
2018-08-12T09:27:41.489Z,23.89
2018-08-12T09:30:19.980Z,24.15
2018-08-12T09:32:49.144Z,23.79
2018-08-12T09:35:17.895Z,23.58
2018-08-12T09:37:46.374Z,23.93
2018-08-12T09:40:16.094Z,24.03
2018-08-12T09:42:45.508Z,23.66
2018-08-12T09:45:16.375Z,23.71
2018-08-12T09:47:45.080Z,23.89
2018-08-12T09:50:14.991Z,23.88
2018-08-12T09:52:43.637Z,24.26
2018-08-12T09:55:13.081Z,24.26
2018-08-12T09:57:41.540Z,24.32
2018-08-12T10:00:20.224Z,24.14
2018-08-12T10:02:49.006Z,24.69
2018-08-12T10:05:17.947Z,25.12
2018-08-12T10:07:46.646Z,25.31
2018-08-12T10:10:15.542Z,25.66
2018-08-12T10:12:44.571Z,25.15
2018-08-12T10:15:13.827Z,25.25
2018-08-12T10:17:43.735Z,25.74
2018-08-12T10:20:12.217Z,26.22
2018-08-12T10:22:40.767Z,26.18
2018-08-12T10:25:10.151Z,26.21
2018-08-12T10:27:38.976Z,26.32
2018-08-12T10:30:09.905Z,25.85
2018-08-12T10:32:38.738Z,25.10
2018-08-12T10:35:08.668Z,25.53
2018-08-12T10:37:37.159Z,26.31
2018-08-12T10:40:07.951Z,26.62
2018-08-12T10:42:36.371Z,26.61
2018-08-12T10:45:06.771Z,26.18
2018-08-12T10:47:35.444Z,26.22
2018-08-12T10:50:04.487Z,25.34
2018-08-12T10:52:32.983Z,25.55
2018-08-12T10:55:01.471Z,26.41
2018-08-12T10:57:29.983Z,26.14
2018-08-12T10:59:58.587Z,26.02
2018-08-12T11:02:27.249Z,26.76
2018-08-12T11:04:55.955Z,26.46
2018-08-12T11:07:24.485Z,26.68
2018-08-12T11:09:53.163Z,26.66
2018-08-12T11:12:22.140Z,26.74
2018-08-12T11:14:50.631Z,26.52
2018-08-12T11:17:19.031Z,26.95
2018-08-12T11:19:47.815Z,26.67
2018-08-12T11:22:16.269Z,27.19
2018-08-12T11:24:44.814Z,27.22
2018-08-12T11:27:13.415Z,27.14
2018-08-12T11:29:41.869Z,26.86
2018-08-12T11:32:10.263Z,27.39
2018-08-12T11:34:38.739Z,27.39
2018-08-12T11:37:07.263Z,27.12
2018-08-12T11:39:35.733Z,27.63
2018-08-12T11:42:04.703Z,27.63
2018-08-12T11:44:33.211Z,26.67
2018-08-12T11:47:01.759Z,26.51
2018-08-12T11:49:30.268Z,26.69
2018-08-12T11:51:58.739Z,26.23
2018-08-12T11:54:27.179Z,26.04
2018-08-12T11:56:56.172Z,26.36
2018-08-12T11:59:24.642Z,26.42
2018-08-12T12:01:53.104Z,26.51
2018-08-12T12:04:21.683Z,26.13
2018-08-12T12:06:50.207Z,26.26
2018-08-12T12:09:18.681Z,26.35
2018-08-12T12:11:47.226Z,26.44
2018-08-12T12:14:15.667Z,27.00
2018-08-12T12:16:44.177Z,27.09
2018-08-12T12:19:12.611Z,27.44
2018-08-12T12:21:41.115Z,27.91
2018-08-12T12:24:09.658Z,27.99
2018-08-12T12:26:38.151Z,28.12
2018-08-12T12:29:06.667Z,28.32
2018-08-12T12:31:35.184Z,27.71
2018-08-12T12:34:04.341Z,27.65
2018-08-12T12:36:32.839Z,27.45
2018-08-12T12:39:01.459Z,27.54
2018-08-12T12:41:29.927Z,27.50
2018-08-12T12:43:58.429Z,27.56
2018-08-12T12:46:26.898Z,28.19
2018-08-12T12:48:55.339Z,27.65
2018-08-12T12:51:23.787Z,27.78
2018-08-12T12:53:52.206Z,27.82
2018-08-12T12:56:21.027Z,27.36
2018-08-12T12:58:49.452Z,27.73
2018-08-12T13:01:17.893Z,27.58
2018-08-12T13:03:46.409Z,27.32
2018-08-12T13:06:14.815Z,27.44
2018-08-12T13:08:43.341Z,27.18
2018-08-12T13:11:12.437Z,27.47
2018-08-12T13:13:40.859Z,27.38
2018-08-12T13:16:09.351Z,27.88
2018-08-12T13:18:38.162Z,27.63
2018-08-12T13:21:06.718Z,27.57
2018-08-12T13:23:35.167Z,27.49
2018-08-12T13:26:03.655Z,27.42
2018-08-12T13:28:32.071Z,27.96
2018-08-12T13:31:00.599Z,28.00
2018-08-12T13:33:29.148Z,28.04
2018-08-12T13:35:57.607Z,27.68
2018-08-12T13:38:26.091Z,28.07
2018-08-12T13:40:54.644Z,28.08
2018-08-12T13:43:23.134Z,27.86
2018-08-12T13:45:51.537Z,27.59
2018-08-12T13:48:20.092Z,27.80
2018-08-12T13:50:48.598Z,28.23
2018-08-12T13:53:17.102Z,27.89
2018-08-12T13:55:45.463Z,28.20
2018-08-12T13:58:13.892Z,28.37
2018-08-12T14:00:42.295Z,28.42
2018-08-12T14:03:10.971Z,27.97
2018-08-12T14:05:39.416Z,28.10
2018-08-12T14:08:07.871Z,28.27
2018-08-12T14:10:36.319Z,28.00
2018-08-12T14:13:04.731Z,28.40
2018-08-12T14:15:33.227Z,28.50
2018-08-12T14:18:01.709Z,28.74
2018-08-12T14:20:30.158Z,28.81
2018-08-12T14:22:58.910Z,28.91
2018-08-12T14:25:27.746Z,28.88
2018-08-12T14:27:56.207Z,29.07
2018-08-12T14:30:24.659Z,28.95
2018-08-12T14:32:53.439Z,29.20
2018-08-12T14:35:21.887Z,29.32
2018-08-12T14:37:50.371Z,29.46
2018-08-12T14:40:18.935Z,29.48
2018-08-12T14:42:47.468Z,28.71
2018-08-12T14:45:16.617Z,28.72
2018-08-12T14:47:45.519Z,28.50
2018-08-12T14:50:16.544Z,28.82
2018-08-12T14:52:45.070Z,28.35
2018-08-12T14:55:14.036Z,28.53
2018-08-12T14:57:43.065Z,28.38
2018-08-12T15:00:17.355Z,28.57
2018-08-12T15:02:47.227Z,28.49
2018-08-12T15:05:15.723Z,28.58
2018-08-12T15:07:44.431Z,28.71
2018-08-12T15:10:13.315Z,28.48
2018-08-12T15:12:42.831Z,28.42
2018-08-12T15:15:12.790Z,28.49
2018-08-12T15:17:42.643Z,28.55
2018-08-12T15:20:11.878Z,28.91
2018-08-12T15:22:40.892Z,28.99
2018-08-12T15:25:11.175Z,28.94
2018-08-12T15:27:39.859Z,28.89
2018-08-12T15:30:09.313Z,28.93
2018-08-12T15:32:37.975Z,28.67
2018-08-12T15:35:07.038Z,28.65
2018-08-12T15:37:35.842Z,28.57
2018-08-12T15:40:14.357Z,28.56
2018-08-12T15:42:43.588Z,28.58
2018-08-12T15:45:14.527Z,28.60
2018-08-12T15:47:43.754Z,28.73
2018-08-12T15:50:12.910Z,28.79
2018-08-12T15:52:43.541Z,28.75
2018-08-12T15:55:12.315Z,28.59
2018-08-12T15:57:40.793Z,28.84
2018-08-12T16:00:16.917Z,28.63
2018-08-12T16:02:45.639Z,28.39
2018-08-12T16:05:14.151Z,28.49
2018-08-12T16:07:43.291Z,28.53
2018-08-12T16:10:17.383Z,28.36
2018-08-12T16:12:47.284Z,28.35
2018-08-12T16:15:15.921Z,28.30
2018-08-12T16:17:44.515Z,28.37
2018-08-12T16:20:13.572Z,28.19
2018-08-12T16:22:42.429Z,28.33
2018-08-12T16:25:15.651Z,28.33
2018-08-12T16:27:44.555Z,28.35
2018-08-12T16:30:14.622Z,28.28
2018-08-12T16:32:43.446Z,28.26
2018-08-12T16:35:13.708Z,28.19
2018-08-12T16:37:43.161Z,28.14
2018-08-12T16:40:14.515Z,28.03
2018-08-12T16:42:42.918Z,27.83
2018-08-12T16:45:13.052Z,27.76
2018-08-12T16:47:41.822Z,27.82
2018-08-12T16:50:11.580Z,27.70
2018-08-12T16:52:40.867Z,27.70
2018-08-12T16:55:11.416Z,27.79
2018-08-12T16:57:39.919Z,27.85
2018-08-12T17:00:11.691Z,27.81
2018-08-12T17:02:40.129Z,27.80
2018-08-12T17:05:11.229Z,27.82
2018-08-12T17:07:39.830Z,27.91
2018-08-12T17:10:09.527Z,27.84
2018-08-12T17:12:38.132Z,27.81
2018-08-12T17:15:07.829Z,27.85
2018-08-12T17:17:36.336Z,27.85
2018-08-12T17:20:07.024Z,27.90
2018-08-12T17:22:35.675Z,27.82
2018-08-12T17:25:04.875Z,27.96
2018-08-12T17:27:33.533Z,27.87
2018-08-12T17:30:02.087Z,27.91
2018-08-12T17:32:31.310Z,28.01
2018-08-12T17:35:00.230Z,27.95
2018-08-12T17:37:29.008Z,27.82
2018-08-12T17:39:57.467Z,27.78
2018-08-12T17:42:26.128Z,27.74
2018-08-12T17:44:54.571Z,27.63
2018-08-12T17:47:22.995Z,27.35
2018-08-12T17:49:51.524Z,27.27
2018-08-12T17:52:19.952Z,27.23
2018-08-12T17:54:48.719Z,27.16
2018-08-12T17:57:17.574Z,27.32
2018-08-12T17:59:45.995Z,27.19
2018-08-12T18:02:14.575Z,26.91
2018-08-12T18:04:43.554Z,26.82
2018-08-12T18:07:12.312Z,26.72
2018-08-12T18:09:40.736Z,26.68
2018-08-12T18:12:09.434Z,26.62
2018-08-12T18:14:38.160Z,26.50
2018-08-12T18:17:06.665Z,26.27
2018-08-12T18:19:35.643Z,26.12
2018-08-12T18:22:04.106Z,26.11
2018-08-12T18:24:32.712Z,26.05
2018-08-12T18:27:01.699Z,25.79
2018-08-12T18:29:30.256Z,25.62
2018-08-12T18:31:58.811Z,25.71
2018-08-12T18:34:27.450Z,25.45
2018-08-12T18:36:56.061Z,25.48
2018-08-12T18:39:24.973Z,25.18
2018-08-12T18:41:54.137Z,24.83
2018-08-12T18:44:22.817Z,24.76
2018-08-12T18:46:51.714Z,24.75
2018-08-12T18:49:20.818Z,24.47
2018-08-12T18:51:50.014Z,24.40
2018-08-12T18:54:19.242Z,24.13
2018-08-12T18:56:48.295Z,24.12
2018-08-12T18:59:17.063Z,24.13
2018-08-12T19:01:47.043Z,24.00
2018-08-12T19:04:16.847Z,23.73
2018-08-12T19:06:45.883Z,23.21
2018-08-12T19:09:15.159Z,23.11
2018-08-12T19:11:44.372Z,22.90
2018-08-12T19:14:13.342Z,23.08
2018-08-12T19:16:42.872Z,22.96
2018-08-12T19:19:12.079Z,22.89
2018-08-12T19:21:41.762Z,22.87
2018-08-12T19:24:13.074Z,22.85
2018-08-12T19:26:43.283Z,22.84
2018-08-12T19:29:13.697Z,22.70
2018-08-12T19:31:43.504Z,22.64
2018-08-12T19:34:12.561Z,22.78
2018-08-12T19:36:44.444Z,22.67
2018-08-12T19:39:13.447Z,22.35
2018-08-12T19:41:42.950Z,22.25
2018-08-12T19:44:11.910Z,22.15
2018-08-12T19:46:41.393Z,22.02
2018-08-12T19:49:10.382Z,21.98
2018-08-12T19:51:39.964Z,21.60
2018-08-12T19:54:08.981Z,21.50
2018-08-12T19:56:38.163Z,21.38
2018-08-12T19:59:07.363Z,21.26
2018-08-12T20:01:36.521Z,21.13
2018-08-12T20:04:06.086Z,20.94
2018-08-12T20:06:35.628Z,20.99
2018-08-12T20:09:06.407Z,20.97
2018-08-12T20:11:35.595Z,20.95
2018-08-12T20:14:04.662Z,20.66
2018-08-12T20:16:33.745Z,20.94
2018-08-12T20:19:03.543Z,20.55
2018-08-12T20:21:32.484Z,20.58
2018-08-12T20:24:01.696Z,20.57
2018-08-12T20:26:30.672Z,20.68
2018-08-12T20:29:00.072Z,20.24
2018-08-12T20:31:30.145Z,20.25
2018-08-12T20:33:59.182Z,20.26
2018-08-12T20:36:28.019Z,19.85
2018-08-12T20:38:57.242Z,19.86
2018-08-12T20:41:26.294Z,19.45
2018-08-12T20:43:55.298Z,19.53
2018-08-12T20:46:24.189Z,19.65
2018-08-12T20:48:52.699Z,19.53
2018-08-12T20:51:21.148Z,19.24
2018-08-12T20:53:49.679Z,19.39
2018-08-12T20:56:18.434Z,19.59
2018-08-12T20:58:46.882Z,19.28
2018-08-12T21:01:15.287Z,19.28
2018-08-12T21:03:43.878Z,19.09
2018-08-12T21:06:12.376Z,18.82
2018-08-12T21:08:40.844Z,18.78
2018-08-12T21:11:09.375Z,18.67
2018-08-12T21:13:37.930Z,18.45
2018-08-12T21:16:06.619Z,18.53
2018-08-12T21:18:35.630Z,18.58
2018-08-12T21:21:04.134Z,18.42
2018-08-12T21:23:32.603Z,18.50
2018-08-12T21:26:01.189Z,18.22
2018-08-12T21:28:29.669Z,18.25
2018-08-12T21:30:58.238Z,18.30
2018-08-12T21:33:26.818Z,18.12
2018-08-12T21:35:55.434Z,17.67
2018-08-12T21:38:23.916Z,17.64
2018-08-12T21:40:52.407Z,17.61
2018-08-12T21:43:20.981Z,17.73
2018-08-12T21:45:49.482Z,17.75
2018-08-12T21:48:18.223Z,17.66
2018-08-12T21:50:46.671Z,17.63
2018-08-12T21:53:15.163Z,17.75
2018-08-12T21:55:43.661Z,17.68
2018-08-12T21:58:12.183Z,17.65
2018-08-12T22:00:40.960Z,17.54
2018-08-12T22:03:09.935Z,17.45
2018-08-12T22:05:38.427Z,17.43
2018-08-12T22:08:09.818Z,17.14
2018-08-12T22:10:39.676Z,17.41
2018-08-12T22:13:08.880Z,17.34
2018-08-12T22:15:37.359Z,17.42
2018-08-12T22:18:07.121Z,17.28
2018-08-12T22:20:35.699Z,17.22
2018-08-12T22:23:04.207Z,17.13
2018-08-12T22:25:32.777Z,16.82
2018-08-12T22:28:01.287Z,16.90
2018-08-12T22:30:29.852Z,17.07
2018-08-12T22:32:58.307Z,17.22
2018-08-12T22:35:26.847Z,17.23
2018-08-12T22:37:55.580Z,17.21
2018-08-12T22:40:24.126Z,17.08
2018-08-12T22:42:52.514Z,16.96
2018-08-12T22:45:21.163Z,16.78
2018-08-12T22:47:49.632Z,16.93
2018-08-12T22:50:18.071Z,16.82
2018-08-12T22:52:46.607Z,16.68
2018-08-12T22:55:15.126Z,16.49
2018-08-12T22:57:43.542Z,16.51
2018-08-12T23:00:17.192Z,16.34
2018-08-12T23:02:45.923Z,16.34
2018-08-12T23:05:14.506Z,16.48
2018-08-12T23:07:43.148Z,16.44
2018-08-12T23:10:11.707Z,16.14
2018-08-12T23:12:40.702Z,16.06
2018-08-12T23:16:20.746Z,15.77
2018-08-12T23:18:49.247Z,15.87
2018-08-12T23:21:18.629Z,15.88
2018-08-12T23:23:48.355Z,15.74
2018-08-12T23:26:18.135Z,15.93
2018-08-12T23:28:46.923Z,16.00
2018-08-12T23:31:15.439Z,16.01
2018-08-12T23:33:43.923Z,15.87
2018-08-12T23:36:12.651Z,15.90
2018-08-12T23:38:41.142Z,15.56
2018-08-12T23:41:10.621Z,15.36
2018-08-12T23:43:39.106Z,15.38
2018-08-12T23:46:08.062Z,16.44
2018-08-12T23:48:36.527Z,16.43
2018-08-12T23:51:04.931Z,16.32
2018-08-12T23:53:33.652Z,16.50
2018-08-12T23:56:02.139Z,16.34
2018-08-12T23:58:30.574Z,16.33
